createdAt,value
2023-01-29T00:03:03.124Z,6.50
2023-01-29T00:06:45.867Z,6.50
2023-01-29T00:10:28.403Z,6.50
2023-01-29T00:14:13.697Z,6.50
2023-01-29T00:17:55.433Z,6.50
2023-01-29T00:21:37.385Z,6.50
2023-01-29T00:25:19.282Z,6.50
2023-01-29T00:29:02.159Z,6.50
2023-01-29T00:32:44.238Z,6.50
2023-01-29T00:36:26.917Z,6.50
2023-01-29T00:40:10.157Z,6.50
2023-01-29T00:44:11.400Z,6.60
2023-01-29T00:47:53.211Z,6.60
2023-01-29T00:51:36.216Z,6.60
2023-01-29T00:55:18.397Z,6.60
2023-01-29T00:59:00.201Z,6.60
2023-01-29T01:03:01.298Z,6.60
2023-01-29T01:06:43.429Z,6.60
2023-01-29T01:10:31.785Z,6.70
2023-01-29T01:14:13.496Z,6.60
2023-01-29T01:17:58.273Z,6.60
2023-01-29T01:21:40.352Z,6.60
2023-01-29T01:25:24.521Z,6.60
2023-01-29T01:29:09.267Z,6.60
2023-01-29T01:32:51.037Z,6.60
2023-01-29T01:36:32.740Z,6.60
2023-01-29T01:40:19.679Z,6.50
2023-01-29T01:44:06.735Z,6.60
2023-01-29T01:47:57.670Z,6.60
2023-01-29T01:51:44.980Z,6.50
2023-01-29T01:55:30.157Z,6.50
2023-01-29T01:59:17.490Z,6.50
2023-01-29T02:03:24.301Z,6.50
2023-01-29T02:07:28.217Z,6.50
2023-01-29T02:11:10.562Z,6.50
2023-01-29T02:14:55.544Z,6.50
2023-01-29T02:18:38.175Z,6.50
2023-01-29T02:22:41.929Z,6.50
2023-01-29T02:26:42.155Z,6.60
2023-01-29T02:30:37.980Z,6.60
2023-01-29T02:35:03.660Z,6.60
2023-01-29T02:39:00.136Z,6.60
2023-01-29T02:42:57.085Z,6.60
2023-01-29T02:46:47.027Z,6.60
2023-01-29T02:50:38.076Z,6.60
2023-01-29T02:54:47.745Z,6.60
2023-01-29T02:58:38.420Z,6.60
2023-01-29T03:02:29.157Z,6.60
2023-01-29T03:06:20.347Z,6.60
2023-01-29T03:10:03.308Z,6.60
2023-01-29T03:14:07.453Z,6.60
2023-01-29T03:18:01.544Z,6.50
2023-01-29T03:21:51.359Z,6.60
2023-01-29T03:25:54.562Z,6.60
2023-01-29T03:29:56.858Z,6.60
2023-01-29T03:34:07.287Z,6.60
2023-01-29T03:37:49.341Z,6.60
2023-01-29T03:41:38.875Z,6.60
2023-01-29T03:45:20.557Z,6.70
2023-01-29T03:49:21.359Z,6.70
2023-01-29T03:53:37.330Z,6.70
2023-01-29T03:57:42.941Z,6.70
2023-01-29T04:01:35.706Z,6.70
2023-01-29T04:05:21.335Z,6.70
2023-01-29T04:09:09.261Z,6.70
2023-01-29T04:13:02.039Z,6.70
2023-01-29T04:16:51.083Z,6.70
2023-01-29T04:20:33.305Z,6.70
2023-01-29T04:24:15.722Z,6.70
2023-01-29T04:28:09.382Z,6.70
2023-01-29T04:32:09.770Z,6.70
2023-01-29T04:36:13.729Z,6.70
2023-01-29T04:40:20.397Z,6.70
2023-01-29T04:44:38.444Z,6.70
2023-01-29T04:48:30.266Z,6.70
2023-01-29T04:52:33.040Z,6.70
2023-01-29T04:56:21.303Z,6.70
2023-01-29T05:00:20.727Z,6.70
2023-01-29T05:04:07.538Z,6.70
2023-01-29T05:07:49.736Z,6.70
2023-01-29T05:11:34.255Z,6.70
2023-01-29T05:15:23.111Z,6.60
2023-01-29T05:19:04.837Z,6.60
2023-01-29T05:22:48.113Z,6.60
2023-01-29T05:26:48.436Z,6.60
2023-01-29T05:30:31.483Z,6.70
2023-01-29T05:34:13.440Z,6.70
2023-01-29T05:37:58.428Z,6.70
2023-01-29T05:41:40.241Z,6.80
2023-01-29T05:45:22.078Z,6.80
2023-01-29T05:49:04.708Z,6.80
2023-01-29T05:52:46.420Z,6.80
2023-01-29T05:56:28.203Z,6.80
2023-01-29T06:00:10.591Z,6.70
2023-01-29T06:03:52.406Z,6.70
2023-01-29T06:07:34.255Z,6.70
2023-01-29T06:11:18.198Z,6.70
2023-01-29T06:14:59.904Z,6.70
2023-01-29T06:18:41.995Z,6.70
2023-01-29T06:22:23.706Z,6.70
2023-01-29T06:26:08.501Z,6.70
2023-01-29T06:29:50.223Z,6.70
2023-01-29T06:33:32.018Z,6.70
2023-01-29T06:37:13.743Z,6.70
2023-01-29T06:40:55.834Z,6.70
2023-01-29T06:44:37.819Z,6.80
2023-01-29T06:48:19.970Z,6.80
2023-01-29T06:52:01.728Z,6.80
2023-01-29T06:55:44.198Z,6.80
2023-01-29T06:59:25.913Z,6.80
2023-01-29T07:03:10.629Z,6.80
2023-01-29T07:06:52.340Z,6.80
2023-01-29T07:10:34.044Z,6.70
2023-01-29T07:14:15.786Z,6.80
2023-01-29T07:18:02.006Z,6.80
2023-01-29T07:21:43.700Z,6.80
2023-01-29T07:25:26.344Z,6.80
2023-01-29T07:29:08.147Z,6.70
2023-01-29T07:32:49.847Z,6.70
2023-01-29T07:36:31.559Z,6.70
2023-01-29T07:40:13.661Z,6.80
2023-01-29T07:43:55.474Z,6.80
2023-01-29T07:47:37.614Z,6.80
2023-01-29T07:51:21.348Z,6.80
2023-01-29T07:55:03.266Z,6.80
2023-01-29T07:58:45.129Z,6.80
2023-01-29T08:02:26.870Z,6.80
2023-01-29T08:06:08.881Z,6.80
2023-01-29T08:09:50.766Z,6.90
2023-01-29T08:13:32.866Z,6.90
2023-01-29T08:17:14.722Z,6.90
2023-01-29T08:21:01.100Z,6.90
2023-01-29T08:24:53.881Z,6.90
2023-01-29T08:28:41.724Z,6.90
2023-01-29T08:32:23.649Z,6.90
2023-01-29T08:36:05.702Z,6.90
2023-01-29T08:39:47.437Z,6.90
2023-01-29T08:43:29.270Z,7.00
2023-01-29T08:47:11.083Z,7.00
2023-01-29T08:50:52.855Z,7.10
2023-01-29T08:54:34.580Z,7.10
2023-01-29T08:58:16.379Z,7.20
2023-01-29T09:01:58.169Z,7.20
2023-01-29T09:05:40.818Z,7.30
2023-01-29T09:09:22.589Z,7.30
2023-01-29T09:13:04.957Z,7.40
2023-01-29T09:16:46.735Z,7.40
2023-01-29T09:20:28.458Z,7.50
2023-01-29T09:24:10.829Z,7.50
2023-01-29T09:27:54.269Z,7.60
2023-01-29T09:31:36.061Z,7.70
2023-01-29T09:35:18.050Z,7.70
2023-01-29T09:38:59.956Z,7.80
2023-01-29T09:42:48.546Z,7.80
2023-01-29T09:46:41.563Z,7.80
2023-01-29T09:50:31.275Z,7.90
2023-01-29T09:54:24.600Z,7.90
2023-01-29T09:58:17.627Z,7.90
2023-01-29T10:02:11.465Z,8.00
2023-01-29T10:06:15.105Z,8.10
2023-01-29T10:10:09.860Z,8.10
2023-01-29T10:14:02.939Z,8.20
2023-01-29T10:17:49.456Z,8.20
2023-01-29T10:21:52.934Z,8.30
2023-01-29T10:25:39.896Z,8.30
2023-01-29T10:29:22.178Z,8.40
2023-01-29T10:33:06.190Z,8.40
2023-01-29T10:36:49.359Z,8.50
2023-01-29T10:41:12.553Z,8.60
2023-01-29T10:45:00.124Z,8.70
2023-01-29T10:49:06.157Z,8.80
2023-01-29T10:53:07.923Z,8.90
2023-01-29T10:57:13.310Z,9.00
2023-01-29T11:00:55.136Z,9.10
2023-01-29T11:04:37.847Z,9.20
2023-01-29T11:08:25.104Z,9.20
2023-01-29T11:12:17.610Z,9.30
2023-01-29T11:15:59.478Z,9.30
2023-01-29T11:19:45.224Z,9.40
2023-01-29T11:23:31.127Z,9.40
2023-01-29T11:27:23.051Z,9.50
2023-01-29T11:31:23.899Z,9.60
2023-01-29T11:35:23.694Z,9.70
2023-01-29T11:39:19.657Z,9.70
2023-01-29T11:43:31.101Z,9.80
2023-01-29T11:47:23.928Z,9.70
2023-01-29T11:51:06.613Z,9.80
2023-01-29T11:55:04.443Z,9.70
2023-01-29T11:58:49.109Z,9.70
2023-01-29T12:02:42.979Z,9.70
2023-01-29T12:06:37.679Z,9.70
2023-01-29T12:10:40.383Z,9.80
2023-01-29T12:14:30.180Z,9.80
2023-01-29T12:18:26.230Z,9.80
2023-01-29T12:22:23.616Z,10.00
2023-01-29T12:26:13.617Z,10.00
2023-01-29T12:30:10.758Z,10.10
2023-01-29T12:34:15.380Z,10.10
2023-01-29T12:38:20.072Z,10.20
2023-01-29T12:42:19.184Z,10.30
2023-01-29T12:46:02.295Z,10.30
2023-01-29T12:49:48.257Z,10.40
2023-01-29T12:53:40.048Z,10.40
2023-01-29T12:57:21.726Z,10.50
2023-01-29T13:01:14.131Z,10.60
2023-01-29T13:05:26.420Z,10.60
2023-01-29T13:09:21.278Z,10.60
2023-01-29T13:13:14.108Z,10.60
2023-01-29T13:17:07.777Z,10.60
2023-01-29T13:20:50.386Z,10.70
2023-01-29T13:24:40.596Z,10.70
2023-01-29T13:28:26.560Z,10.70
2023-01-29T13:32:10.408Z,10.70
2023-01-29T13:35:59.298Z,10.80
2023-01-29T13:39:48.015Z,10.80
2023-01-29T13:43:36.817Z,10.80
2023-01-29T13:47:30.384Z,10.80
2023-01-29T13:51:20.120Z,10.70
2023-01-29T13:55:19.236Z,10.70
2023-01-29T13:59:01.929Z,10.70
2023-01-29T14:02:43.757Z,10.80
2023-01-29T14:06:42.357Z,10.80
2023-01-29T14:10:25.150Z,10.80
2023-01-29T14:14:45.115Z,10.80
2023-01-29T14:18:32.222Z,10.80
2023-01-29T14:22:27.086Z,10.80
2023-01-29T14:26:38.968Z,10.80
2023-01-29T14:30:22.602Z,10.70
2023-01-29T14:34:08.636Z,10.70
2023-01-29T14:37:57.977Z,10.70
2023-01-29T14:41:39.752Z,10.60
2023-01-29T14:45:39.821Z,10.60
2023-01-29T14:49:50.545Z,10.50
2023-01-29T14:53:48.494Z,10.50
2023-01-29T14:57:31.553Z,10.40
2023-01-29T15:01:24.990Z,10.40
2023-01-29T15:05:33.172Z,10.30
2023-01-29T15:09:17.638Z,10.30
2023-01-29T15:13:09.394Z,10.30
2023-01-29T15:17:18.278Z,10.30
2023-01-29T15:21:19.324Z,10.30
2023-01-29T15:25:07.260Z,10.30
2023-01-29T15:29:03.432Z,10.30
2023-01-29T15:32:47.332Z,10.30
2023-01-29T15:36:30.825Z,10.30
2023-01-29T15:40:16.821Z,10.30
2023-01-29T15:43:58.925Z,10.30
2023-01-29T15:47:41.196Z,10.30
2023-01-29T15:51:26.373Z,10.20
2023-01-29T15:55:12.584Z,10.20
2023-01-29T15:58:57.336Z,10.10
2023-01-29T16:02:43.475Z,10.10
2023-01-29T16:06:26.082Z,10.10
2023-01-29T16:10:14.495Z,10.10
2023-01-29T16:13:57.197Z,10.00
2023-01-29T16:17:40.759Z,10.00
2023-01-29T16:21:40.633Z,9.90
2023-01-29T16:25:23.295Z,9.90
2023-01-29T16:29:21.465Z,9.80
2023-01-29T16:33:11.897Z,9.70
2023-01-29T16:36:55.032Z,9.70
2023-01-29T16:40:38.862Z,9.60
2023-01-29T16:44:20.529Z,9.60
2023-01-29T16:48:26.409Z,9.50
2023-01-29T16:52:22.765Z,9.40
2023-01-29T16:56:08.286Z,9.40
2023-01-29T16:59:54.054Z,9.30
2023-01-29T17:03:37.333Z,9.20
2023-01-29T17:07:21.919Z,9.20
2023-01-29T17:11:04.325Z,9.20
2023-01-29T17:15:00.738Z,9.10
2023-01-29T17:18:42.552Z,9.00
2023-01-29T17:22:24.555Z,8.90
2023-01-29T17:26:08.351Z,8.90
2023-01-29T17:29:52.065Z,8.90
2023-01-29T17:33:37.246Z,8.80
2023-01-29T17:37:20.110Z,8.80
2023-01-29T17:41:21.588Z,8.70
2023-01-29T17:45:03.566Z,8.60
2023-01-29T17:48:45.982Z,8.60
2023-01-29T17:52:27.735Z,8.60
2023-01-29T17:56:15.051Z,8.50
2023-01-29T17:59:56.767Z,8.40
2023-01-29T18:03:38.527Z,8.40
2023-01-29T18:07:20.400Z,8.40
2023-01-29T18:11:02.121Z,8.40
2023-01-29T18:14:43.876Z,8.40
2023-01-29T18:18:25.730Z,8.40
2023-01-29T18:22:07.519Z,8.40
2023-01-29T18:25:51.935Z,8.40
2023-01-29T18:29:33.872Z,8.40
2023-01-29T18:33:16.841Z,8.40
2023-01-29T18:37:00.188Z,8.50
2023-01-29T18:40:42.050Z,8.50
2023-01-29T18:44:23.785Z,8.60
2023-01-29T18:48:06.101Z,8.60
2023-01-29T18:51:47.871Z,8.60
2023-01-29T18:55:29.667Z,8.60
2023-01-29T18:59:12.613Z,8.60
2023-01-29T19:02:54.525Z,8.50
2023-01-29T19:06:37.767Z,8.50
2023-01-29T19:10:19.698Z,8.50
2023-01-29T19:14:02.798Z,8.60
2023-01-29T19:17:47.677Z,8.60
2023-01-29T19:21:30.984Z,8.60
2023-01-29T19:25:13.917Z,8.70
2023-01-29T19:28:55.694Z,8.70
2023-01-29T19:32:37.443Z,8.80
2023-01-29T19:36:19.385Z,8.70
2023-01-29T19:40:01.087Z,8.80
2023-01-29T19:43:43.169Z,8.80
2023-01-29T19:47:24.928Z,8.80
2023-01-29T19:51:09.195Z,8.90
2023-01-29T19:54:50.902Z,8.90
2023-01-29T19:58:33.504Z,9.00
2023-01-29T20:02:15.263Z,9.00
2023-01-29T20:06:03.790Z,9.00
2023-01-29T20:09:46.611Z,9.00
2023-01-29T20:13:28.815Z,9.00
2023-01-29T20:17:10.561Z,9.10
2023-01-29T20:20:53.099Z,9.10
2023-01-29T20:24:39.187Z,9.10
2023-01-29T20:28:21.003Z,9.10
2023-01-29T20:32:04.109Z,9.10
2023-01-29T20:35:45.826Z,9.20
2023-01-29T20:39:27.616Z,9.20
2023-01-29T20:43:09.552Z,9.10
2023-01-29T20:46:51.376Z,9.10
2023-01-29T20:50:34.266Z,9.20
2023-01-29T20:54:16.160Z,9.10
2023-01-29T20:58:06.294Z,9.10
2023-01-29T21:01:48.717Z,9.20
2023-01-29T21:05:31.037Z,9.20
2023-01-29T21:09:13.614Z,9.20
2023-01-29T21:12:55.396Z,9.20
2023-01-29T21:16:37.633Z,9.20
2023-01-29T21:20:20.225Z,9.30
2023-01-29T21:24:01.962Z,9.20
2023-01-29T21:27:46.776Z,9.20
2023-01-29T21:31:28.563Z,9.20
2023-01-29T21:35:10.525Z,9.20
2023-01-29T21:38:52.908Z,9.20
2023-01-29T21:42:56.984Z,9.20
2023-01-29T21:46:41.761Z,9.20
2023-01-29T21:50:23.720Z,9.10
2023-01-29T21:54:08.789Z,9.20
2023-01-29T21:57:50.823Z,9.10
2023-01-29T22:01:38.043Z,9.20
2023-01-29T22:05:25.284Z,9.10
2023-01-29T22:09:07.311Z,9.10
2023-01-29T22:12:49.532Z,9.10
2023-01-29T22:16:31.361Z,9.10
2023-01-29T22:20:14.577Z,9.10
2023-01-29T22:23:56.395Z,9.20
2023-01-29T22:27:38.529Z,9.20
2023-01-29T22:31:20.258Z,9.10
2023-01-29T22:35:02.796Z,9.20
2023-01-29T22:38:44.725Z,9.20
2023-01-29T22:42:27.934Z,9.20
2023-01-29T22:46:12.818Z,9.20
2023-01-29T22:49:55.004Z,9.20
2023-01-29T22:53:43.423Z,9.20
2023-01-29T22:57:28.332Z,9.30
2023-01-29T23:01:10.626Z,9.30
2023-01-29T23:04:52.384Z,9.40
2023-01-29T23:08:37.354Z,9.40
2023-01-29T23:12:20.832Z,9.40
2023-01-29T23:16:02.939Z,9.40
2023-01-29T23:19:44.659Z,9.40
2023-01-29T23:23:30.101Z,9.40
2023-01-29T23:27:15.026Z,9.30
2023-01-29T23:30:56.831Z,9.30
2023-01-29T23:47:58.463Z,9.20
2023-01-29T23:51:40.360Z,8.90
2023-01-29T23:55:23.070Z,8.90
2023-01-29T23:59:05.581Z,8.90
